Time;durP1;ratioP1;P1;durP2;ratioP2;P2;SDS_P1;SDS_P2;PMS_P1;PMS_P2;Temp;Humidity;BMP_temperature;BMP_pressure;BME280_temperature;BME280_humidity;BME280_pressure;Samples;Min_cycle;Max_cycle;Signal;HPM_P1;HPM_P2
2021/05/16 00:00:26;;;;;;;7.78;2.13;;;10.20;99.90;;;;;;5060329;28;20035;-57
2021/05/16 00:02:52;;;;;;;11.10;2.30;;;10.10;99.90;;;;;;5060301;28;20109;-53
2021/05/16 00:05:20;;;;;;;15.10;3.28;;;10.20;99.90;;;;;;5063683;28;20028;-52
2021/05/16 00:07:46;;;;;;;10.73;2.10;;;10.20;99.90;;;;;;5067062;28;20052;-53
2021/05/16 00:10:14;;;;;;;11.63;2.72;;;10.20;99.90;;;;;;5068660;28;20056;-53
2021/05/16 00:12:40;;;;;;;11.70;2.10;;;10.20;99.90;;;;;;5064799;28;20025;-55
2021/05/16 00:15:08;;;;;;;16.23;2.05;;;10.20;99.90;;;;;;5062017;28;20033;-59
2021/05/16 00:17:34;;;;;;;13.27;2.50;;;10.20;99.90;;;;;;5060998;28;20460;-60
2021/05/16 00:20:00;;;;;;;17.85;2.53;;;10.30;99.90;;;;;;5064088;28;20033;-59
2021/05/16 00:22:25;;;;;;;17.27;3.85;;;10.30;99.90;;;;;;5063615;28;20028;-52
2021/05/16 00:24:51;;;;;;;10.60;2.53;;;10.40;99.90;;;;;;5063634;28;20108;-53
2021/05/16 00:27:17;;;;;;;8.40;2.63;;;10.40;99.90;;;;;;5064639;28;20146;-52
2021/05/16 00:29:42;;;;;;;9.30;2.17;;;10.40;99.90;;;;;;5064766;28;20048;-56
2021/05/16 00:32:08;;;;;;;16.75;2.47;;;10.40;99.90;;;;;;5061155;28;20525;-54
2021/05/16 00:34:34;;;;;;;11.40;2.35;;;10.50;99.90;;;;;;5064707;28;20036;-52
2021/05/16 00:36:59;;;;;;;12.57;4.45;;;10.40;99.90;;;;;;5067174;28;20029;-54
2021/05/16 00:39:25;;;;;;;8.07;1.85;;;10.40;99.90;;;;;;5068750;28;20040;-59
2021/05/16 00:41:52;;;;;;;13.98;2.40;;;10.40;99.90;;;;;;5067543;28;20422;-55
2021/05/16 00:44:19;;;;;;;15.80;2.95;;;10.30;99.90;;;;;;5062236;28;20159;-56
2021/05/16 00:46:45;;;;;;;19.17;2.47;;;10.20;99.90;;;;;;5061960;28;20029;-58
2021/05/16 00:49:11;;;;;;;15.98;2.70;;;10.20;99.90;;;;;;5058098;28;20025;-61
2021/05/16 00:51:37;;;;;;;13.18;3.28;;;10.20;99.90;;;;;;5068739;28;20394;-56
2021/05/16 00:54:05;;;;;;;13.10;2.15;;;10.10;99.90;;;;;;5068326;28;20036;-58
2021/05/16 00:56:31;;;;;;;16.70;3.60;;;10.10;99.90;;;;;;5068126;28;20028;-53
2021/05/16 00:58:59;;;;;;;15.00;2.17;;;9.90;99.90;;;;;;5061616;28;20031;-54
2021/05/16 01:01:26;;;;;;;13.63;2.55;;;9.90;99.90;;;;;;5060479;28;20029;-53
2021/05/16 01:03:51;;;;;;;12.20;2.22;;;9.90;99.90;;;;;;5061319;28;20137;-54
2021/05/16 01:06:17;;;;;;;13.85;2.15;;;9.80;99.90;;;;;;5068644;28;20083;-58
2021/05/16 01:08:46;;;;;;;16.58;2.90;;;9.70;99.90;;;;;;5068930;28;20040;-53
2021/05/16 01:11:12;;;;;;;16.50;3.60;;;9.70;99.90;;;;;;5064924;28;20437;-55
2021/05/16 01:13:38;;;;;;;16.00;2.65;;;9.60;99.90;;;;;;5064753;28;20317;-56
2021/05/16 01:16:03;;;;;;;11.02;2.55;;;9.50;99.90;;;;;;5065358;28;20470;-58
2021/05/16 01:18:29;;;;;;;13.13;2.17;;;9.40;99.90;;;;;;5062951;28;20163;-52
2021/05/16 01:20:55;;;;;;;11.52;2.92;;;9.40;99.90;;;;;;5071189;28;20017;-56
2021/05/16 01:23:31;;;;;;;17.92;3.03;;;9.40;99.90;;;;;;5071788;28;20025;-58
2021/05/16 01:25:57;;;;;;;12.15;2.10;;;9.30;99.90;;;;;;5072335;28;20032;-52
2021/05/16 01:28:23;;;;;;;11.82;4.38;;;9.20;99.90;;;;;;5068497;28;20073;-52
2021/05/16 01:30:50;;;;;;;15.88;2.80;;;9.10;99.90;;;;;;5070446;28;20068;-53
2021/05/16 01:33:17;;;;;;;11.88;3.03;;;9.10;99.90;;;;;;5067934;28;20104;-51
2021/05/16 01:35:43;;;;;;;20.67;3.13;;;9.10;99.90;;;;;;5070473;28;20052;-54
2021/05/16 01:38:08;;;;;;;17.10;3.45;;;9.00;99.90;;;;;;5071777;28;20441;-51
2021/05/16 01:40:38;;;;;;;13.52;3.47;;;9.00;99.90;;;;;;5071748;28;20036;-52
2021/05/16 01:43:13;;;;;;;9.57;3.05;;;8.90;99.90;;;;;;5068620;28;20089;-56
2021/05/16 01:45:40;;;;;;;14.52;2.60;;;8.90;99.90;;;;;;5071256;28;20107;-56
2021/05/16 01:48:05;;;;;;;13.70;3.05;;;8.80;99.90;;;;;;5070552;28;20024;-55
2021/05/16 01:50:34;;;;;;;19.27;3.13;;;8.80;99.90;;;;;;5069486;28;20036;-53
2021/05/16 01:53:02;;;;;;;16.02;2.70;;;8.80;99.90;;;;;;5066475;28;20496;-60
2021/05/16 01:55:27;;;;;;;17.42;3.17;;;8.80;99.90;;;;;;5071711;28;20078;-53
2021/05/16 01:57:53;;;;;;;14.13;3.28;;;8.80;99.90;;;;;;5070590;28;20029;-52
2021/05/16 02:00:28;;;;;;;12.23;3.20;;;8.80;99.90;;;;;;5066155;28;20021;-59
2021/05/16 02:02:55;;;;;;;14.05;2.90;;;8.80;99.90;;;;;;5064804;28;20115;-52
2021/05/16 02:05:21;;;;;;;17.77;3.08;;;8.80;99.90;;;;;;5070070;28;20498;-55
2021/05/16 02:07:48;;;;;;;21.23;4.32;;;8.80;99.90;;;;;;5070822;28;20111;-56
2021/05/16 02:10:15;;;;;;;13.45;3.60;;;8.70;99.90;;;;;;5071300;28;20033;-57
2021/05/16 02:12:41;;;;;;;15.90;3.00;;;8.80;99.90;;;;;;5070366;28;20020;-53
2021/05/16 02:15:08;;;;;;;15.90;3.17;;;8.70;99.90;;;;;;5070573;28;20029;-58
2021/05/16 02:17:34;;;;;;;14.68;3.53;;;8.80;99.90;;;;;;5069030;28;20064;-53
2021/05/16 02:19:59;;;;;;;13.77;2.78;;;8.80;99.90;;;;;;5067648;28;20054;-55
2021/05/16 02:22:25;;;;;;;13.63;2.67;;;8.90;99.90;;;;;;5075236;28;20044;-53
2021/05/16 02:24:50;;;;;;;12.27;2.65;;;8.90;99.90;;;;;;5068245;28;20096;-53
2021/05/16 02:27:17;;;;;;;15.52;3.33;;;9.00;99.90;;;;;;5069303;28;20478;-56
2021/05/16 02:29:43;;;;;;;15.00;3.92;;;9.00;99.90;;;;;;5067057;28;20104;-54
2021/05/16 02:32:08;;;;;;;18.00;3.38;;;8.90;99.90;;;;;;5069206;28;20116;-60
2021/05/16 02:34:35;;;;;;;20.48;3.67;;;8.90;99.90;;;;;;5067487;28;20064;-54
2021/05/16 02:37:00;;;;;;;13.27;3.22;;;8.90;99.90;;;;;;5070578;28;20025;-53
2021/05/16 02:39:26;;;;;;;13.98;4.22;;;8.90;99.90;;;;;;5067741;28;20430;-53
2021/05/16 02:41:52;;;;;;;15.55;3.38;;;8.80;99.90;;;;;;5070344;28;20032;-56
2021/05/16 02:44:18;;;;;;;16.67;3.75;;;8.70;99.90;;;;;;5068743;28;20044;-53
2021/05/16 02:46:44;;;;;;;17.05;3.55;;;8.80;99.90;;;;;;5069533;28;20470;-53
2021/05/16 02:49:10;;;;;;;16.10;2.83;;;8.80;99.90;;;;;;5066313;28;20486;-60
2021/05/16 02:51:37;;;;;;;17.27;2.92;;;8.70;99.90;;;;;;5071274;28;20060;-56
2021/05/16 02:54:03;;;;;;;18.58;3.42;;;8.70;99.90;;;;;;5069864;28;20107;-56
2021/05/16 02:56:29;;;;;;;18.85;3.45;;;8.60;99.90;;;;;;5070173;28;20033;-55
2021/05/16 02:58:55;;;;;;;20.58;5.40;;;8.70;99.90;;;;;;5065894;28;20447;-56
2021/05/16 03:01:20;;;;;;;12.57;3.17;;;8.60;99.90;;;;;;5067577;28;20070;-56
2021/05/16 03:03:46;;;;;;;18.08;4.03;;;8.60;99.90;;;;;;5068087;28;20078;-54
2021/05/16 03:06:12;;;;;;;17.90;3.42;;;8.50;99.90;;;;;;5069924;28;20510;-53
2021/05/16 03:08:37;;;;;;;19.30;3.15;;;8.50;99.90;;;;;;5070040;28;20122;-54
2021/05/16 03:11:03;;;;;;;8.13;2.47;;;8.50;99.90;;;;;;5069747;28;20051;-55
2021/05/16 03:13:29;;;;;;;13.85;2.80;;;8.30;99.90;;;;;;5068753;28;20024;-58
2021/05/16 03:15:55;;;;;;;12.02;3.58;;;8.30;99.90;;;;;;5067745;28;20032;-55
2021/05/16 03:18:21;;;;;;;10.02;2.35;;;8.30;99.90;;;;;;5069940;28;20029;-58
2021/05/16 03:20:47;;;;;;;15.93;3.00;;;8.30;99.90;;;;;;5067939;28;20032;-52
2021/05/16 03:23:13;;;;;;;13.65;3.00;;;8.20;99.90;;;;;;5067151;28;20032;-60
2021/05/16 03:25:39;;;;;;;12.40;2.50;;;8.20;99.90;;;;;;5069744;28;20036;-55
2021/05/16 03:28:05;;;;;;;10.13;2.40;;;8.20;99.90;;;;;;5069884;28;20024;-52
2021/05/16 03:30:30;;;;;;;9.77;3.08;;;8.10;99.90;;;;;;5067743;28;20039;-56
2021/05/16 03:32:56;;;;;;;12.55;3.28;;;8.10;99.90;;;;;;5065596;28;20056;-54
2021/05/16 03:35:22;;;;;;;15.15;3.20;;;8.10;99.90;;;;;;5065558;28;20123;-61
2021/05/16 03:37:48;;;;;;;10.70;2.90;;;8.00;99.90;;;;;;5070561;28;20028;-56
2021/05/16 03:40:14;;;;;;;14.27;2.85;;;8.00;99.90;;;;;;5069349;28;20036;-56
2021/05/16 03:42:40;;;;;;;11.45;3.35;;;7.90;99.90;;;;;;5066542;28;20024;-53
2021/05/16 03:45:08;;;;;;;16.77;3.42;;;7.90;99.90;;;;;;5064657;28;20027;-54
2021/05/16 03:47:33;;;;;;;16.90;3.53;;;7.80;99.90;;;;;;5059972;28;20462;-57
2021/05/16 03:49:59;;;;;;;14.90;4.32;;;7.80;99.90;;;;;;5066966;28;20090;-55
2021/05/16 03:52:24;;;;;;;9.73;2.85;;;7.80;99.90;;;;;;5068305;28;20029;-52
2021/05/16 03:54:51;;;;;;;17.58;3.83;;;7.80;99.90;;;;;;5068272;28;20086;-54
2021/05/16 03:57:21;;;;;;;14.45;3.47;;;7.80;99.90;;;;;;5065655;28;20033;-53
2021/05/16 03:59:47;;;;;;;14.43;4.10;;;7.80;99.90;;;;;;5060479;28;20066;-52
2021/05/16 04:02:13;;;;;;;11.60;3.17;;;7.80;99.90;;;;;;5060604;28;20029;-53
2021/05/16 04:04:38;;;;;;;13.98;2.92;;;7.80;99.90;;;;;;5066342;28;20051;-57
2021/05/16 04:07:04;;;;;;;12.85;3.15;;;7.80;99.90;;;;;;5064378;28;20031;-54
2021/05/16 04:09:29;;;;;;;17.65;3.70;;;7.70;99.90;;;;;;5068471;28;20104;-55
2021/05/16 04:11:55;;;;;;;13.50;3.55;;;7.80;99.90;;;;;;5068339;28;20025;-53
2021/05/16 04:14:23;;;;;;;16.65;2.95;;;7.80;99.90;;;;;;5061327;28;20025;-55
2021/05/16 04:16:49;;;;;;;14.45;4.38;;;7.80;99.90;;;;;;5061432;28;20028;-55
2021/05/16 04:19:15;;;;;;;14.23;3.70;;;7.80;99.90;;;;;;5062214;28;20032;-54
2021/05/16 04:21:40;;;;;;;13.38;3.03;;;7.80;99.90;;;;;;5068263;28;20037;-52
2021/05/16 04:24:06;;;;;;;11.32;3.10;;;7.80;99.90;;;;;;5050765;28;20433;-55
2021/05/16 04:26:33;;;;;;;10.88;3.30;;;7.90;99.90;;;;;;5068209;28;20033;-53
2021/05/16 04:28:58;;;;;;;15.00;3.03;;;8.00;99.90;;;;;;5069847;28;20070;-55
2021/05/16 04:31:24;;;;;;;7.40;2.95;;;8.10;99.90;;;;;;5067189;28;20020;-57
2021/05/16 04:33:50;;;;;;;11.15;3.88;;;8.20;99.90;;;;;;5067265;28;20029;-57
2021/05/16 04:36:16;;;;;;;12.05;3.60;;;8.20;99.90;;;;;;5065616;28;20341;-50
2021/05/16 04:38:42;;;;;;;14.00;4.20;;;8.30;99.90;;;;;;5065896;28;20056;-51
2021/05/16 04:41:07;;;;;;;11.63;3.28;;;8.40;99.90;;;;;;5068079;28;20021;-53
2021/05/16 04:43:33;;;;;;;13.27;2.95;;;8.50;99.90;;;;;;5068960;28;20040;-58
2021/05/16 04:45:58;;;;;;;9.55;3.40;;;8.60;99.90;;;;;;5066980;28;20025;-58
2021/05/16 04:48:24;;;;;;;9.93;2.60;;;8.70;99.90;;;;;;5068670;28;20042;-54
2021/05/16 04:50:49;;;;;;;11.63;3.75;;;8.80;99.90;;;;;;5069991;28;20444;-57
2021/05/16 04:53:15;;;;;;;10.13;3.08;;;8.90;99.90;;;;;;5070017;28;20048;-54
2021/05/16 04:55:40;;;;;;;15.50;2.90;;;9.00;99.90;;;;;;5072928;28;20535;-54
2021/05/16 04:58:07;;;;;;;13.43;3.03;;;9.10;99.90;;;;;;5067577;28;20028;-61
2021/05/16 05:00:33;;;;;;;5.05;2.70;;;9.20;99.90;;;;;;5065373;28;20036;-56
2021/05/16 05:02:58;;;;;;;12.10;3.00;;;9.20;99.90;;;;;;5065364;28;20033;-55
2021/05/16 05:05:24;;;;;;;14.52;3.15;;;9.30;99.90;;;;;;5067783;28;20475;-58
2021/05/16 05:07:49;;;;;;;15.25;3.10;;;9.40;99.90;;;;;;5072318;28;20039;-54
2021/05/16 05:10:15;;;;;;;11.45;2.45;;;9.40;99.90;;;;;;5071812;28;20024;-51
2021/05/16 05:12:41;;;;;;;10.98;2.92;;;9.50;99.90;;;;;;5068348;28;20348;-53
2021/05/16 05:15:07;;;;;;;7.50;2.95;;;9.60;99.90;;;;;;5065747;28;20040;-53
2021/05/16 05:17:32;;;;;;;10.82;2.75;;;9.70;99.90;;;;;;5071681;28;20081;-54
2021/05/16 05:19:58;;;;;;;7.82;2.47;;;9.80;99.90;;;;;;5070318;28;20032;-53
2021/05/16 05:22:23;;;;;;;9.45;2.60;;;9.90;99.90;;;;;;5071848;28;20043;-55
2021/05/16 05:24:49;;;;;;;11.07;3.25;;;9.90;99.90;;;;;;5071742;28;20119;-52
2021/05/16 05:27:14;;;;;;;11.98;4.40;;;10.00;99.90;;;;;;5069807;28;20555;-53
2021/05/16 05:29:40;;;;;;;14.65;3.00;;;10.10;99.90;;;;;;5068925;28;20036;-54
2021/05/16 05:32:06;;;;;;;13.10;3.72;;;10.20;99.90;;;;;;5068580;28;20512;-55
2021/05/16 05:34:32;;;;;;;9.57;2.10;;;10.30;99.90;;;;;;5067698;28;20035;-55
2021/05/16 05:36:57;;;;;;;8.77;2.58;;;10.40;99.90;;;;;;5063781;28;20092;-56
2021/05/16 05:39:23;;;;;;;12.18;3.45;;;10.40;99.90;;;;;;5066597;28;20462;-53
2021/05/16 05:41:49;;;;;;;15.13;2.67;;;10.50;99.90;;;;;;5068462;28;20036;-61
2021/05/16 05:44:15;;;;;;;7.88;3.03;;;10.60;99.90;;;;;;5062506;28;20585;-56
2021/05/16 05:46:41;;;;;;;12.80;3.80;;;10.60;99.90;;;;;;5082908;22;20037;-57
2021/05/16 05:49:07;;;;;;;11.77;3.00;;;10.70;99.90;;;;;;5065421;28;20020;-54
2021/05/16 05:51:33;;;;;;;18.10;3.58;;;10.80;99.90;;;;;;5071200;28;20046;-55
2021/05/16 05:53:59;;;;;;;9.35;3.15;;;10.90;99.90;;;;;;5071549;28;20029;-55
2021/05/16 05:56:24;;;;;;;11.25;3.85;;;10.90;99.90;;;;;;5071473;28;20036;-54
2021/05/16 05:58:50;;;;;;;11.98;3.72;;;11.00;99.90;;;;;;5064260;28;20027;-54
2021/05/16 06:01:16;;;;;;;11.25;3.15;;;11.00;99.90;;;;;;5061245;28;20040;-57
2021/05/16 06:03:43;;;;;;;11.43;3.35;;;10.90;99.90;;;;;;5063435;28;20182;-54
2021/05/16 06:06:08;;;;;;;12.55;3.20;;;10.90;99.90;;;;;;5067240;28;20058;-55
2021/05/16 06:08:34;;;;;;;18.92;3.33;;;10.80;99.90;;;;;;5071341;28;20524;-56
2021/05/16 06:11:00;;;;;;;18.52;3.67;;;10.80;99.90;;;;;;5070264;28;20021;-54
2021/05/16 06:13:25;;;;;;;9.98;2.90;;;10.80;99.90;;;;;;5064527;28;20087;-55
2021/05/16 06:15:51;;;;;;;9.07;2.85;;;10.80;99.90;;;;;;5060966;28;20067;-57
2021/05/16 06:18:17;;;;;;;12.60;2.55;;;10.80;99.90;;;;;;5064745;28;20398;-55
2021/05/16 06:20:42;;;;;;;16.55;3.53;;;10.70;99.90;;;;;;5063713;28;20115;-55
2021/05/16 06:23:10;;;;;;;16.92;4.03;;;10.70;99.90;;;;;;5068336;28;20032;-57
2021/05/16 06:25:37;;;;;;;9.63;3.47;;;10.70;99.90;;;;;;5069445;28;20034;-55
2021/05/16 06:28:03;;;;;;;13.10;3.20;;;10.70;99.90;;;;;;5065106;28;20020;-54
2021/05/16 06:30:28;;;;;;;17.48;3.65;;;10.60;99.90;;;;;;5061675;28;20402;-56
2021/05/16 06:32:54;;;;;;;14.77;3.45;;;10.60;99.90;;;;;;5060058;28;20043;-57
2021/05/16 06:35:20;;;;;;;13.57;3.53;;;10.50;99.90;;;;;;5066851;28;20032;-55
2021/05/16 06:37:46;;;;;;;15.32;3.17;;;10.30;99.90;;;;;;5063301;28;20060;-55
2021/05/16 06:40:13;;;;;;;16.88;3.55;;;10.30;99.90;;;;;;5068247;28;20048;-54
2021/05/16 06:42:40;;;;;;;12.60;3.00;;;10.30;99.90;;;;;;5070004;28;20066;-55
2021/05/16 06:45:06;;;;;;;14.40;2.95;;;10.30;99.90;;;;;;5068591;28;20084;-56
2021/05/16 06:47:32;;;;;;;15.65;3.80;;;10.20;99.90;;;;;;5071954;28;20040;-56
2021/05/16 06:49:57;;;;;;;16.85;3.00;;;10.10;99.90;;;;;;5069336;28;20495;-57
2021/05/16 06:52:23;;;;;;;19.85;3.78;;;10.10;99.90;;;;;;5068522;28;20031;-57
2021/05/16 06:54:49;;;;;;;17.17;5.28;;;10.10;99.90;;;;;;5074470;28;20041;-58
2021/05/16 06:57:18;;;;;;;14.25;3.72;;;10.20;99.90;;;;;;5065986;28;20060;-55
2021/05/16 06:59:44;;;;;;;12.32;3.80;;;10.20;99.90;;;;;;5067865;28;20398;-56
2021/05/16 07:02:10;;;;;;;12.70;3.72;;;10.20;99.90;;;;;;5065541;28;20037;-57
2021/05/16 07:04:36;;;;;;;12.70;3.70;;;10.30;99.90;;;;;;5066123;28;20086;-55
2021/05/16 07:07:01;;;;;;;6.70;3.53;;;10.30;99.90;;;;;;5069582;28;20029;-55
2021/05/16 07:09:27;;;;;;;8.85;3.08;;;10.40;99.90;;;;;;5066928;28;20067;-56
2021/05/16 07:11:53;;;;;;;10.40;4.00;;;10.50;99.90;;;;;;5067204;28;20064;-55
2021/05/16 07:14:18;;;;;;;12.05;3.58;;;10.60;99.90;;;;;;5068813;28;20024;-56
2021/05/16 07:16:44;;;;;;;7.97;3.53;;;10.80;99.90;;;;;;5068551;28;20102;-56
2021/05/16 07:19:09;;;;;;;14.93;2.80;;;10.90;99.90;;;;;;5071656;28;20036;-56
2021/05/16 07:21:35;;;;;;;7.05;2.30;;;10.90;99.90;;;;;;5069787;28;20037;-57
2021/05/16 07:24:01;;;;;;;8.35;3.40;;;10.90;99.90;;;;;;5067645;28;20028;-55
2021/05/16 07:26:27;;;;;;;10.35;2.60;;;10.90;99.90;;;;;;5068615;28;20021;-57
2021/05/16 07:28:53;;;;;;;6.85;2.75;;;10.90;99.90;;;;;;5070442;28;20124;-57
2021/05/16 07:31:19;;;;;;;6.07;2.45;;;10.90;99.90;;;;;;5069901;28;20368;-55
2021/05/16 07:33:44;;;;;;;6.28;1.98;;;10.90;99.90;;;;;;5067257;28;20021;-56
2021/05/16 07:36:10;;;;;;;4.05;2.20;;;10.90;99.90;;;;;;5062885;28;20032;-58
2021/05/16 07:38:36;;;;;;;7.05;2.17;;;11.10;99.90;;;;;;5064278;28;20379;-57
2021/05/16 07:41:02;;;;;;;5.22;1.88;;;11.10;99.90;;;;;;5068917;28;20086;-58
2021/05/16 07:43:27;;;;;;;6.18;1.60;;;11.20;99.90;;;;;;5068015;28;20458;-56
2021/05/16 07:45:53;;;;;;;5.20;1.73;;;11.10;99.90;;;;;;5066718;28;20032;-58
2021/05/16 07:48:19;;;;;;;5.20;2.00;;;11.10;99.90;;;;;;5070983;28;20020;-57
2021/05/16 07:50:45;;;;;;;6.03;1.75;;;11.10;99.90;;;;;;5067559;28;20092;-56
2021/05/16 07:53:12;;;;;;;7.28;1.48;;;11.10;99.90;;;;;;5062923;28;20036;-57
2021/05/16 07:55:40;;;;;;;6.13;2.03;;;11.20;99.90;;;;;;5068491;28;20031;-55
2021/05/16 07:58:05;;;;;;;7.97;1.80;;;11.30;99.90;;;;;;5066293;28;20032;-57
2021/05/16 08:00:31;;;;;;;5.18;1.40;;;11.30;99.90;;;;;;5068231;28;20028;-57
2021/05/16 08:02:57;;;;;;;3.63;1.52;;;11.40;99.90;;;;;;5066144;28;20504;-58
2021/05/16 08:05:22;;;;;;;7.32;1.50;;;11.40;99.90;;;;;;5068420;28;20039;-57
2021/05/16 08:07:48;;;;;;;5.13;1.17;;;11.60;99.90;;;;;;5070417;28;20025;-56
2021/05/16 08:10:15;;;;;;;3.35;1.17;;;11.70;99.90;;;;;;5067139;28;20024;-58
2021/05/16 08:12:40;;;;;;;2.63;1.20;;;11.80;99.90;;;;;;5063916;28;20037;-56
2021/05/16 08:15:08;;;;;;;6.72;1.35;;;11.90;99.90;;;;;;5065377;28;20033;-58
2021/05/16 08:17:34;;;;;;;3.28;1.08;;;11.90;99.90;;;;;;5066008;28;20028;-58
2021/05/16 08:20:00;;;;;;;12.27;1.70;;;11.90;99.90;;;;;;5066212;28;20107;-57
2021/05/16 08:22:26;;;;;;;3.63;1.17;;;12.00;99.90;;;;;;5071042;28;20101;-57
2021/05/16 08:24:51;;;;;;;4.38;1.30;;;12.10;99.90;;;;;;5072786;28;20509;-58
2021/05/16 08:27:17;;;;;;;8.05;1.60;;;12.20;99.90;;;;;;5072082;28;20017;-58
2021/05/16 08:29:43;;;;;;;4.60;1.35;;;12.30;99.90;;;;;;5071533;28;20024;-56
2021/05/16 08:32:09;;;;;;;5.25;2.13;;;12.30;99.90;;;;;;5059037;28;20055;-55
2021/05/16 08:34:35;;;;;;;6.30;1.23;;;12.30;99.90;;;;;;5071941;28;20103;-57
2021/05/16 08:37:01;;;;;;;4.97;1.20;;;12.30;99.90;;;;;;5072952;28;20177;-58
2021/05/16 08:39:26;;;;;;;5.88;1.30;;;12.30;99.90;;;;;;5073093;28;20040;-58
2021/05/16 08:41:52;;;;;;;6.63;1.75;;;12.50;99.90;;;;;;5070095;28;20028;-57
2021/05/16 08:44:20;;;;;;;4.20;1.40;;;12.50;99.90;;;;;;5070464;28;20518;-54
2021/05/16 08:46:46;;;;;;;3.88;1.45;;;12.60;99.90;;;;;;5071347;28;20032;-57
2021/05/16 08:49:11;;;;;;;2.70;1.15;;;12.70;99.90;;;;;;5072745;28;20035;-56
2021/05/16 08:51:39;;;;;;;5.10;1.30;;;12.80;99.90;;;;;;5072364;28;20086;-55
2021/05/16 08:54:05;;;;;;;5.30;1.50;;;12.80;99.90;;;;;;5064178;28;20029;-57
2021/05/16 08:56:30;;;;;;;4.00;1.70;;;13.00;99.90;;;;;;5068233;28;20334;-56
2021/05/16 08:58:56;;;;;;;3.42;1.50;;;13.00;99.90;;;;;;5068756;28;20060;-56
2021/05/16 09:01:23;;;;;;;7.53;1.52;;;13.10;99.90;;;;;;5070545;28;20024;-56
2021/05/16 09:03:50;;;;;;;8.38;2.00;;;13.00;99.90;;;;;;5074009;28;20030;-56
2021/05/16 09:06:16;;;;;;;7.38;3.63;;;12.80;99.90;;;;;;5071466;28;20029;-55
2021/05/16 09:08:42;;;;;;;5.65;2.60;;;12.80;99.90;;;;;;5071587;28;20497;-55
2021/05/16 09:11:08;;;;;;;4.00;2.20;;;12.70;99.90;;;;;;5071704;28;20478;-55
2021/05/16 09:13:41;;;;;;;7.95;1.98;;;12.80;99.90;;;;;;5068899;28;20032;-57
2021/05/16 09:16:16;;;;;;;4.80;1.30;;;13.00;99.90;;;;;;5068678;28;20036;-56
2021/05/16 09:18:53;;;;;;;8.77;1.70;;;13.50;99.90;;;;;;5052679;28;20043;-55
2021/05/16 09:21:28;;;;;;;7.75;2.15;;;13.70;99.90;;;;;;5069678;28;20031;-54
2021/05/16 09:24:00;;;;;;;5.85;1.48;;;13.90;99.90;;;;;;5070109;28;20056;-55
2021/05/16 09:26:29;;;;;;;4.18;1.40;;;14.00;99.90;;;;;;5067728;28;20376;-56
2021/05/16 09:28:54;;;;;;;9.98;1.92;;;13.80;99.90;;;;;;5064434;28;20095;-56
2021/05/16 09:31:36;;;;;;;4.68;1.65;;;13.70;99.90;;;;;;5062060;28;20160;-56
2021/05/16 09:34:03;;;;;;;4.43;1.33;;;13.60;99.90;;;;;;5068886;28;20032;-55
2021/05/16 09:36:36;;;;;;;13.10;3.15;;;13.60;99.90;;;;;;5069441;28;20025;-56
2021/05/16 09:39:15;;;;;;;15.50;2.42;;;13.80;99.90;;;;;;5067652;28;20040;-55
2021/05/16 09:42:01;;;;;;;6.53;1.73;;;13.90;99.90;;;;;;5068236;28;20477;-54
2021/05/16 09:44:28;;;;;;;10.73;1.98;;;14.10;99.90;;;;;;5071176;28;20037;-55
2021/05/16 09:47:17;;;;;;;9.27;1.70;;;14.30;99.90;;;;;;5069849;28;20492;-53
2021/05/16 09:49:51;;;;;;;12.32;1.65;;;14.40;99.90;;;;;;5068197;28;20017;-56
2021/05/16 09:52:19;;;;;;;13.75;2.50;;;14.50;99.90;;;;;;5070221;28;20422;-56
2021/05/16 09:55:11;;;;;;;10.73;1.92;;;14.70;99.90;;;;;;5067493;28;20039;-57
2021/05/16 09:57:38;;;;;;;17.92;3.63;;;15.10;99.90;;;;;;5068019;28;20041;-54
2021/05/16 10:00:06;;;;;;;14.98;3.35;;;15.30;99.90;;;;;;5064848;28;20036;-56
2021/05/16 10:02:32;;;;;;;7.10;1.63;;;15.60;99.90;;;;;;5067808;28;20062;-56
2021/05/16 10:05:00;;;;;;;9.30;1.90;;;15.50;99.90;;;;;;5068365;28;20478;-56
2021/05/16 10:07:28;;;;;;;6.65;1.73;;;15.70;99.90;;;;;;5063176;28;20037;-54
2021/05/16 10:09:55;;;;;;;8.20;1.67;;;16.10;99.90;;;;;;5047180;28;20031;-55
2021/05/16 10:12:23;;;;;;;9.88;1.52;;;16.70;99.90;;;;;;5064143;28;20025;-55
2021/05/16 10:15:17;;;;;;;6.53;1.40;;;16.80;99.90;;;;;;5062437;28;20112;-57
2021/05/16 10:17:48;;;;;;;10.75;1.70;;;17.10;99.90;;;;;;5063468;28;20035;-56
2021/05/16 10:20:15;;;;;;;4.40;1.00;;;17.10;99.90;;;;;;5065951;28;20082;-54
2021/05/16 10:22:50;;;;;;;8.93;1.70;;;16.80;99.90;;;;;;5070880;28;20424;-54
2021/05/16 10:25:43;;;;;;;8.10;1.70;;;16.40;99.90;;;;;;5062250;28;20052;-56
2021/05/16 10:28:16;;;;;;;8.15;1.55;;;16.60;99.90;;;;;;5066982;28;20086;-53
2021/05/16 10:31:11;;;;;;;6.65;1.55;;;16.40;99.90;;;;;;5066487;28;20021;-54
2021/05/16 10:33:42;;;;;;;6.75;1.10;;;16.70;99.90;;;;;;5054952;28;20044;-54
2021/05/16 10:36:08;;;;;;;7.47;1.48;;;16.80;99.90;;;;;;5065136;28;20032;-54
2021/05/16 10:38:37;;;;;;;6.65;1.30;;;16.80;99.90;;;;;;5066212;28;20394;-55
2021/05/16 10:41:19;;;;;;;3.75;0.85;;;16.70;99.90;;;;;;5066157;28;20027;-55
2021/05/16 10:43:45;;;;;;;7.55;1.52;;;16.80;99.90;;;;;;5064160;28;20039;-56
2021/05/16 10:46:36;;;;;;;6.40;1.55;;;16.40;99.90;;;;;;5066299;28;20409;-57
2021/05/16 10:49:19;;;;;;;7.22;1.38;;;16.90;99.90;;;;;;5057030;28;20117;-56
2021/05/16 10:51:44;;;;;;;5.68;1.40;;;17.20;99.90;;;;;;5069847;28;20059;-54
2021/05/16 10:54:30;;;;;;;7.72;1.50;;;17.00;99.90;;;;;;5067234;28;20056;-57
2021/05/16 10:57:13;;;;;;;4.57;1.27;;;17.10;99.90;;;;;;5068198;28;20470;-53
2021/05/16 10:59:39;;;;;;;4.07;0.95;;;17.20;99.90;;;;;;5065314;28;20056;-53
2021/05/16 11:02:05;;;;;;;8.10;1.23;;;17.20;99.90;;;;;;5065401;28;20087;-55
2021/05/16 11:04:50;;;;;;;5.25;1.30;;;16.90;99.90;;;;;;5067498;28;20112;-55
2021/05/16 11:07:36;;;;;;;7.00;1.10;;;16.80;99.90;;;;;;5069636;28;20176;-55
2021/05/16 11:10:24;;;;;;;6.30;1.30;;;17.10;99.90;;;;;;5068894;28;20496;-53
2021/05/16 11:12:49;;;;;;;6.38;1.40;;;17.30;99.90;;;;;;5063567;28;20029;-54
2021/05/16 11:15:25;;;;;;;6.28;1.20;;;17.90;99.90;;;;;;5063891;28;20047;-56
2021/05/16 11:17:51;;;;;;;6.47;1.67;;;18.10;99.90;;;;;;5064655;28;20094;-53
2021/05/16 11:20:20;;;;;;;4.93;1.00;;;18.00;99.90;;;;;;5060492;28;20027;-53
2021/05/16 11:22:46;;;;;;;6.13;1.23;;;17.70;99.90;;;;;;5061288;28;20048;-53
2021/05/16 11:25:22;;;;;;;6.78;1.00;;;17.70;99.90;;;;;;5048392;28;20032;-56
2021/05/16 11:27:48;;;;;;;6.30;1.30;;;17.60;99.90;;;;;;5057743;28;20040;-55
2021/05/16 11:30:14;;;;;;;6.82;1.23;;;17.10;99.90;;;;;;5065620;28;20036;-54
2021/05/16 11:32:41;;;;;;;6.60;1.33;;;16.80;99.90;;;;;;5064844;28;20116;-56
2021/05/16 11:35:08;;;;;;;6.03;1.35;;;16.70;99.90;;;;;;5070253;28;20043;-56
2021/05/16 11:37:34;;;;;;;4.55;1.20;;;16.50;99.90;;;;;;5062533;28;20440;-56
2021/05/16 11:40:19;;;;;;;4.63;1.85;;;16.60;99.90;;;;;;5066557;28;20028;-53
2021/05/16 11:42:45;;;;;;;10.63;1.20;;;16.60;99.90;;;;;;5061431;28;20025;-57
2021/05/16 11:45:12;;;;;;;7.55;1.33;;;16.70;99.90;;;;;;5067598;28;20028;-56
2021/05/16 11:47:39;;;;;;;8.32;1.20;;;16.60;99.90;;;;;;5093631;22;20106;-58
2021/05/16 11:50:07;;;;;;;9.38;1.50;;;16.70;99.90;;;;;;5083496;28;20020;-56
2021/05/16 11:52:33;;;;;;;6.88;1.50;;;16.80;99.90;;;;;;5086204;28;20028;-59
2021/05/16 11:55:10;;;;;;;10.27;1.60;;;16.80;99.90;;;;;;5087129;28;20038;-60
2021/05/16 11:57:41;;;;;;;7.03;1.38;;;16.90;99.90;;;;;;5085138;28;20446;-59
2021/05/16 12:00:09;;;;;;;5.47;1.25;;;16.70;99.90;;;;;;5076245;28;20511;-58
2021/05/16 12:02:36;;;;;;;8.95;1.65;;;16.40;99.90;;;;;;5087190;28;20096;-57
2021/05/16 12:05:02;;;;;;;6.93;1.50;;;16.80;99.90;;;;;;5084139;28;20024;-61
2021/05/16 12:07:29;;;;;;;9.73;1.13;;;17.40;99.90;;;;;;5063913;28;20052;-55
2021/05/16 12:09:54;;;;;;;6.50;1.10;;;17.70;99.90;;;;;;5086220;28;20054;-60
2021/05/16 12:12:22;;;;;;;9.82;1.48;;;17.60;99.90;;;;;;5086801;28;20024;-57
2021/05/16 12:14:49;;;;;;;6.38;1.70;;;17.40;99.90;;;;;;5086497;28;20511;-60
2021/05/16 12:17:15;;;;;;;8.15;1.63;;;17.10;99.90;;;;;;5086454;28;20031;-58
2021/05/16 12:19:41;;;;;;;5.25;1.30;;;16.90;99.90;;;;;;5084741;28;20080;-60
2021/05/16 12:22:14;;;;;;;6.05;1.50;;;17.30;99.90;;;;;;5083242;28;20016;-60
2021/05/16 12:24:46;;;;;;;5.28;1.58;;;18.00;99.90;;;;;;5083761;28;20392;-60
2021/05/16 12:27:19;;;;;;;7.65;0.95;;;18.00;99.90;;;;;;5086580;28;20028;-59
2021/05/16 12:29:47;;;;;;;8.43;1.27;;;18.20;99.90;;;;;;5086904;28;20097;-59
2021/05/16 12:32:21;;;;;;;4.28;1.08;;;18.10;99.90;;;;;;5086006;28;20028;-57
2021/05/16 12:34:47;;;;;;;4.60;1.17;;;17.80;99.90;;;;;;5086925;28;20146;-56
2021/05/16 12:37:21;;;;;;;5.45;1.20;;;17.80;99.90;;;;;;5086465;28;20501;-61
2021/05/16 12:39:52;;;;;;;7.18;0.90;;;18.20;99.90;;;;;;5081544;28;20045;-59
2021/05/16 12:42:37;;;;;;;8.85;1.10;;;18.40;99.90;;;;;;5081669;28;20024;-60
2021/05/16 12:45:21;;;;;;;5.65;1.15;;;18.30;99.90;;;;;;5086134;28;20036;-59
2021/05/16 12:48:04;;;;;;;3.95;1.10;;;18.10;99.90;;;;;;5077737;28;20666;-59